createdAt,value
2018-05-15T00:00:05.691Z,64.19
2018-05-15T00:02:34.520Z,64.66
2018-05-15T00:05:04.438Z,64.73
2018-05-15T00:07:33.189Z,64.37
2018-05-15T00:10:01.971Z,65.37
2018-05-15T00:12:30.791Z,65.73
2018-05-15T00:14:59.799Z,65.20
2018-05-15T00:17:28.668Z,65.38
2018-05-15T00:19:57.413Z,65.87
2018-05-15T00:22:27.004Z,67.16
2018-05-15T00:24:55.736Z,67.85
2018-05-15T00:27:24.531Z,67.27
2018-05-15T00:29:53.275Z,67.04
2018-05-15T00:32:22.050Z,67.67
2018-05-15T00:34:51.768Z,67.88
2018-05-15T00:37:21.009Z,67.64
2018-05-15T00:39:50.213Z,67.79
2018-05-15T00:42:21.108Z,67.58
2018-05-15T00:44:49.848Z,67.86
2018-05-15T00:47:18.675Z,66.84
2018-05-15T00:49:47.460Z,66.77
2018-05-15T00:52:16.275Z,68.13
2018-05-15T00:54:45.012Z,68.84
2018-05-15T00:57:14.171Z,69.32
2018-05-15T00:59:43.726Z,69.26
2018-05-15T01:02:12.505Z,67.84
2018-05-15T01:04:42.529Z,67.50
2018-05-15T01:07:12.397Z,67.64
2018-05-15T01:09:41.948Z,68.16
2018-05-15T01:12:12.621Z,67.95
2018-05-15T01:14:41.952Z,67.89
2018-05-15T01:17:14.862Z,66.96
2018-05-15T01:19:43.630Z,67.53
2018-05-15T01:22:13.746Z,68.05
2018-05-15T01:24:42.518Z,67.58
2018-05-15T01:27:13.870Z,67.67
2018-05-15T01:29:42.644Z,67.47
2018-05-15T01:32:12.093Z,67.62
2018-05-15T01:34:40.849Z,68.91
2018-05-15T01:37:09.606Z,68.66
2018-05-15T01:39:38.443Z,68.94
2018-05-15T01:42:07.178Z,69.07
2018-05-15T01:44:36.365Z,68.32
2018-05-15T01:47:05.172Z,68.44
2018-05-15T01:49:34.061Z,69.38
2018-05-15T01:52:03.705Z,70.08
2018-05-15T01:54:32.746Z,70.45
2018-05-15T01:57:02.276Z,71.35
2018-05-15T01:59:31.096Z,70.68
2018-05-15T02:01:59.865Z,70.07
2018-05-15T02:04:28.622Z,69.85
2018-05-15T02:06:57.372Z,69.90
2018-05-15T02:09:26.219Z,69.71
2018-05-15T02:11:55.117Z,69.56
2018-05-15T02:14:23.888Z,70.73
2018-05-15T02:16:52.623Z,71.61
2018-05-15T02:19:21.462Z,72.30
2018-05-15T02:21:50.249Z,71.79
2018-05-15T02:24:18.989Z,71.68
2018-05-15T02:26:48.520Z,71.51
2018-05-15T02:29:17.291Z,71.70
2018-05-15T02:31:46.821Z,71.08
2018-05-15T02:34:15.581Z,71.96
2018-05-15T02:36:44.494Z,71.93
2018-05-15T02:39:13.490Z,71.90
2018-05-15T02:41:43.111Z,72.63
2018-05-15T02:44:12.422Z,71.67
2018-05-15T02:46:41.455Z,71.99
2018-05-15T02:49:10.200Z,71.73
2018-05-15T02:51:38.990Z,71.90
2018-05-15T02:54:09.173Z,72.06
2018-05-15T02:56:37.955Z,70.78
2018-05-15T02:59:07.545Z,71.00
2018-05-15T03:01:36.325Z,70.97
2018-05-15T03:04:05.078Z,71.27
2018-05-15T03:06:34.593Z,71.76
2018-05-15T03:09:03.371Z,71.51
2018-05-15T03:11:32.180Z,71.35
2018-05-15T03:14:01.589Z,71.41
2018-05-15T03:16:30.421Z,71.28
2018-05-15T03:18:59.932Z,71.54
2018-05-15T03:21:28.805Z,71.59
2018-05-15T03:23:57.524Z,71.99
2018-05-15T03:26:26.300Z,72.26
2018-05-15T03:28:55.113Z,70.13
2018-05-15T03:31:23.836Z,70.64
2018-05-15T03:33:52.651Z,70.85
2018-05-15T03:36:21.395Z,70.99
2018-05-15T03:38:50.108Z,70.38
2018-05-15T03:41:18.867Z,69.91
2018-05-15T03:43:47.694Z,71.56
2018-05-15T03:46:16.399Z,71.19
2018-05-15T03:48:45.911Z,71.55
2018-05-15T03:51:14.684Z,70.79
2018-05-15T03:53:43.468Z,71.09
2018-05-15T03:56:12.944Z,71.00
2018-05-15T03:58:41.745Z,70.18
2018-05-15T04:01:22.245Z,69.15
2018-05-15T04:04:03.937Z,70.15
2018-05-15T04:09:31.930Z,71.84
2018-05-15T04:12:00.671Z,71.58
2018-05-15T04:14:29.393Z,71.33
2018-05-15T04:16:58.908Z,70.74
2018-05-15T04:19:27.741Z,70.71
2018-05-15T04:21:56.506Z,71.59
2018-05-15T04:24:25.357Z,71.31
2018-05-15T04:26:54.172Z,71.01
2018-05-15T04:29:22.921Z,70.28
2018-05-15T04:31:51.670Z,69.73
2018-05-15T04:34:20.428Z,70.81
2018-05-15T04:36:49.932Z,71.36
2018-05-15T04:39:19.458Z,71.53
2018-05-15T04:41:48.192Z,71.25
2018-05-15T04:44:16.951Z,71.02
2018-05-15T04:46:45.761Z,71.10
2018-05-15T04:49:14.717Z,71.13
2018-05-15T04:51:43.416Z,69.75
2018-05-15T04:54:12.186Z,70.84
2018-05-15T04:56:40.973Z,70.54
2018-05-15T04:59:09.677Z,70.24
2018-05-15T05:01:38.446Z,70.65
2018-05-15T05:04:07.236Z,70.03
2018-05-15T05:06:36.489Z,70.19
2018-05-15T05:09:05.284Z,70.55
2018-05-15T05:11:34.068Z,69.88
2018-05-15T05:14:02.816Z,68.72
2018-05-15T05:16:32.317Z,70.80
2018-05-15T05:19:01.053Z,70.78
2018-05-15T05:21:29.857Z,69.79
2018-05-15T05:23:58.649Z,70.27
2018-05-15T05:26:27.375Z,69.69
2018-05-15T05:28:56.157Z,69.80
2018-05-15T05:31:24.907Z,69.93
2018-05-15T05:33:54.314Z,68.33
2018-05-15T05:36:23.118Z,70.61
2018-05-15T05:38:54.113Z,71.61
2018-05-15T05:41:22.863Z,71.34
2018-05-15T05:43:51.600Z,72.07
2018-05-15T05:46:20.398Z,71.47
2018-05-15T05:48:49.160Z,70.69
2018-05-15T05:51:17.981Z,70.94
2018-05-15T05:53:47.248Z,69.22
2018-05-15T05:56:16.079Z,69.57
2018-05-15T05:58:44.837Z,69.32
2018-05-15T06:01:13.889Z,69.00
2018-05-15T06:03:44.445Z,69.02
2018-05-15T06:06:13.846Z,69.26
2018-05-15T06:08:42.609Z,69.75
2018-05-15T06:11:11.364Z,70.05
2018-05-15T06:13:40.150Z,70.06
2018-05-15T06:16:08.902Z,69.83
2018-05-15T06:18:37.647Z,69.37
2018-05-15T06:21:06.395Z,69.26
2018-05-15T06:23:35.156Z,69.08
2018-05-15T06:26:04.135Z,69.21
2018-05-15T06:28:33.020Z,68.38
2018-05-15T06:31:02.579Z,68.24
2018-05-15T06:33:31.335Z,67.42
2018-05-15T06:36:00.138Z,67.50
2018-05-15T06:38:29.687Z,66.71
2018-05-15T06:40:58.580Z,67.54
2018-05-15T06:43:27.416Z,68.71
2018-05-15T06:45:56.165Z,69.19
2018-05-15T06:48:24.884Z,67.50
2018-05-15T06:50:53.658Z,67.81
2018-05-15T06:53:23.302Z,68.28
2018-05-15T06:55:52.010Z,67.70
2018-05-15T06:58:21.161Z,66.22
2018-05-15T07:00:50.792Z,65.93
2018-05-15T07:03:19.549Z,65.45
2018-05-15T07:05:49.096Z,65.20
2018-05-15T07:08:18.009Z,66.17
2018-05-15T07:10:46.769Z,66.19
2018-05-15T07:13:15.554Z,65.97
2018-05-15T07:15:44.489Z,66.52
2018-05-15T07:18:14.376Z,65.78
2018-05-15T07:20:43.202Z,66.28
2018-05-15T07:23:11.944Z,66.01
2018-05-15T07:25:40.786Z,65.68
2018-05-15T07:28:09.641Z,65.58
2018-05-15T07:30:38.417Z,65.38
2018-05-15T07:33:07.283Z,64.81
2018-05-15T07:35:35.979Z,64.24
2018-05-15T07:38:04.697Z,64.12
2018-05-15T07:40:33.508Z,64.13
2018-05-15T07:43:02.269Z,64.27
2018-05-15T07:45:31.033Z,64.22
2018-05-15T07:47:59.930Z,64.30
2018-05-15T07:50:29.491Z,63.81
2018-05-15T07:52:58.284Z,63.02
2018-05-15T07:55:27.055Z,63.58
2018-05-15T07:57:55.806Z,64.09
2018-05-15T08:00:24.642Z,63.81
2018-05-15T08:02:53.399Z,64.50
2018-05-15T08:05:22.212Z,64.49
2018-05-15T08:07:50.955Z,64.99
2018-05-15T08:10:20.603Z,63.72
2018-05-15T08:12:49.450Z,64.46
2018-05-15T08:15:18.241Z,65.09
2018-05-15T08:17:47.776Z,65.60
2018-05-15T08:20:16.557Z,65.13
2018-05-15T08:22:45.297Z,64.53
2018-05-15T08:25:15.114Z,64.46
2018-05-15T08:27:44.961Z,64.10
2018-05-15T08:30:13.736Z,64.34
2018-05-15T08:32:42.535Z,64.27
2018-05-15T08:35:11.405Z,64.83
2018-05-15T08:37:40.179Z,65.25
2018-05-15T08:40:09.006Z,65.30
2018-05-15T08:42:37.801Z,64.00
2018-05-15T08:45:06.634Z,64.68
2018-05-15T08:47:35.430Z,64.21
2018-05-15T08:50:04.229Z,64.72
2018-05-15T08:52:33.495Z,64.69
2018-05-15T08:55:02.242Z,64.00
2018-05-15T08:57:32.439Z,64.51
2018-05-15T09:00:01.237Z,64.54
2018-05-15T09:02:29.968Z,65.05
2018-05-15T09:04:58.726Z,63.46
2018-05-15T09:07:27.489Z,63.83
2018-05-15T09:09:56.256Z,63.58
2018-05-15T09:12:25.026Z,64.83
2018-05-15T09:14:53.771Z,64.23
2018-05-15T09:17:22.528Z,64.46
2018-05-15T09:19:51.296Z,64.27
2018-05-15T09:22:20.100Z,64.81
2018-05-15T09:24:49.364Z,64.20
2018-05-15T09:27:18.202Z,64.60
2018-05-15T09:29:46.937Z,64.41
2018-05-15T09:32:15.711Z,64.76
2018-05-15T09:34:45.564Z,64.04
2018-05-15T09:37:14.632Z,63.92
2018-05-15T09:39:43.421Z,63.26
2018-05-15T09:42:12.186Z,63.22
2018-05-15T09:44:40.941Z,63.57
2018-05-15T09:47:09.707Z,63.68
2018-05-15T09:49:38.480Z,63.57
2018-05-15T09:52:07.232Z,63.44
2018-05-15T09:54:35.977Z,63.57
2018-05-15T09:57:04.737Z,62.82
2018-05-15T09:59:33.652Z,63.46
2018-05-15T10:02:02.452Z,62.38
2018-05-15T10:04:31.335Z,62.59
2018-05-15T10:07:00.204Z,63.35
2018-05-15T10:09:29.091Z,63.54
2018-05-15T10:11:57.937Z,63.38
2018-05-15T10:14:26.755Z,63.61
2018-05-15T10:16:55.564Z,64.41
2018-05-15T10:19:24.345Z,64.02
2018-05-15T10:21:53.104Z,64.29
2018-05-15T10:24:21.976Z,64.26
2018-05-15T10:26:50.771Z,64.03
2018-05-15T10:29:19.524Z,62.17
2018-05-15T10:31:48.305Z,62.94
2018-05-15T10:34:17.073Z,63.46
2018-05-15T10:36:46.246Z,63.06
2018-05-15T10:39:14.916Z,62.85
2018-05-15T10:41:43.726Z,62.66
2018-05-15T10:44:12.483Z,62.83
2018-05-15T10:46:41.402Z,63.24
2018-05-15T10:49:10.219Z,63.12
2018-05-15T10:51:39.005Z,63.21
2018-05-15T10:54:07.791Z,62.98
2018-05-15T10:56:36.580Z,63.25
2018-05-15T10:59:06.113Z,61.97
2018-05-15T11:01:34.899Z,62.96
2018-05-15T11:04:03.699Z,62.53
2018-05-15T11:06:32.465Z,63.39
2018-05-15T11:09:01.257Z,62.45
2018-05-15T11:11:30.801Z,63.42
2018-05-15T11:13:59.717Z,63.33
2018-05-15T11:16:28.544Z,62.94
2018-05-15T11:18:58.101Z,63.05
2018-05-15T11:21:38.712Z,62.71
2018-05-15T11:37:37.539Z,63.65
2018-05-15T11:40:06.387Z,63.86
2018-05-15T11:42:36.526Z,63.41
2018-05-15T11:45:05.302Z,63.93
2018-05-15T11:47:34.958Z,63.28
2018-05-15T11:50:06.780Z,63.06
2018-05-15T11:52:35.690Z,62.19
2018-05-15T11:55:04.236Z,62.28
2018-05-15T11:57:33.813Z,62.39
2018-05-15T12:00:02.697Z,61.87
2018-05-15T12:02:32.263Z,63.27
2018-05-15T12:05:00.988Z,62.62
2018-05-15T12:07:29.782Z,61.74
2018-05-15T12:09:58.535Z,61.66
2018-05-15T12:12:27.348Z,61.87
2018-05-15T12:14:56.759Z,61.79
2018-05-15T12:17:25.567Z,62.33
2018-05-15T12:19:54.959Z,63.20
2018-05-15T12:22:23.730Z,62.85
2018-05-15T12:24:53.681Z,62.45
2018-05-15T12:27:22.458Z,62.19
2018-05-15T12:29:52.446Z,62.03
2018-05-15T12:32:21.953Z,62.46
2018-05-15T12:34:50.738Z,63.15
2018-05-15T12:37:19.535Z,63.37
2018-05-15T12:39:49.515Z,62.29
2018-05-15T12:42:18.281Z,62.04
2018-05-15T12:44:47.035Z,62.89
2018-05-15T12:47:17.566Z,62.87
2018-05-15T12:49:47.020Z,62.95
2018-05-15T12:52:15.806Z,61.87
2018-05-15T12:54:44.602Z,62.54
2018-05-15T12:57:13.491Z,62.17
2018-05-15T12:59:42.246Z,62.12
2018-05-15T13:02:11.032Z,62.04
2018-05-15T13:04:39.823Z,62.17
2018-05-15T13:07:08.577Z,62.28
2018-05-15T13:09:37.330Z,61.46
2018-05-15T13:12:06.873Z,61.64
2018-05-15T13:14:35.626Z,62.82
2018-05-15T13:17:05.129Z,62.88
2018-05-15T13:19:37.366Z,62.30
2018-05-15T13:22:07.667Z,61.94
2018-05-15T13:24:36.729Z,61.72
2018-05-15T13:27:06.147Z,61.37
2018-05-15T13:29:35.658Z,61.67
2018-05-15T13:32:04.451Z,62.05
2018-05-15T13:34:33.210Z,61.32
2018-05-15T13:37:02.761Z,61.33
2018-05-15T13:39:32.620Z,61.58
2018-05-15T13:42:01.394Z,61.38
2018-05-15T13:44:30.187Z,61.14
2018-05-15T13:46:58.945Z,61.83
2018-05-15T13:49:27.803Z,60.68
2018-05-15T13:51:57.405Z,61.98
2018-05-15T13:54:26.514Z,61.02
2018-05-15T13:56:55.293Z,60.85
2018-05-15T13:59:24.053Z,60.02
2018-05-15T14:01:52.919Z,58.49
2018-05-15T14:04:22.117Z,59.99
2018-05-15T14:06:51.674Z,59.40
2018-05-15T14:09:20.439Z,59.45
2018-05-15T14:11:49.208Z,59.56
2018-05-15T14:14:18.058Z,59.30
2018-05-15T14:16:47.447Z,57.56
2018-05-15T14:19:18.079Z,58.67
2018-05-15T14:21:47.476Z,58.29
2018-05-15T14:24:18.072Z,56.42
2018-05-15T14:26:47.535Z,56.66
2018-05-15T14:29:17.376Z,58.12
2018-05-15T14:31:46.124Z,59.20
2018-05-15T14:34:14.912Z,58.54
2018-05-15T14:36:43.685Z,58.63
2018-05-15T14:39:12.444Z,57.52
2018-05-15T14:41:53.538Z,58.27
2018-05-15T14:44:22.297Z,57.14
2018-05-15T14:46:51.135Z,58.36
2018-05-15T14:49:19.921Z,58.70
2018-05-15T14:51:48.692Z,58.53
2018-05-15T14:54:17.649Z,59.15
2018-05-15T14:56:47.530Z,57.33
2018-05-15T14:59:18.127Z,56.72
2018-05-15T15:01:48.457Z,55.91
2018-05-15T15:04:24.445Z,56.58
2018-05-15T15:06:59.608Z,57.12
2018-05-15T15:09:36.887Z,56.13
2018-05-15T15:12:09.504Z,57.51
2018-05-15T15:14:44.479Z,56.93
2018-05-15T15:17:18.367Z,56.52
2018-05-15T15:19:52.994Z,56.20
2018-05-15T15:22:25.879Z,56.76
2018-05-15T15:24:59.282Z,57.85
2018-05-15T15:27:31.111Z,56.79
2018-05-15T15:30:03.058Z,55.77
2018-05-15T15:32:38.688Z,55.63
2018-05-15T15:35:13.151Z,56.30
2018-05-15T15:37:48.137Z,55.06
2018-05-15T15:40:24.446Z,56.54
2018-05-15T15:43:01.320Z,56.68
2018-05-15T15:45:36.519Z,55.76
2018-05-15T15:48:09.068Z,54.70
2018-05-15T15:53:26.165Z,54.52
2018-05-15T15:56:03.102Z,55.43
2018-05-15T15:58:37.117Z,54.92
2018-05-15T16:01:16.658Z,52.96
2018-05-15T16:03:48.209Z,54.96
2018-05-15T16:06:22.424Z,54.32
2018-05-15T16:08:58.398Z,54.11
2018-05-15T16:11:30.754Z,53.94
2018-05-15T16:14:07.787Z,53.85
2018-05-15T16:16:43.658Z,52.67
2018-05-15T16:19:15.965Z,52.35
2018-05-15T16:21:52.996Z,52.30
2018-05-15T16:24:27.518Z,53.74
2018-05-15T16:26:59.859Z,55.21
2018-05-15T16:29:36.136Z,55.38
2018-05-15T16:32:11.863Z,55.00
2018-05-15T16:34:48.716Z,55.74
2018-05-15T16:37:23.999Z,56.07
2018-05-15T16:39:56.595Z,55.72
2018-05-15T16:42:36.265Z,55.30
2018-05-15T16:45:10.237Z,52.78
2018-05-15T16:47:45.660Z,53.90
2018-05-15T16:50:21.774Z,54.24
2018-05-15T16:52:55.879Z,54.96
2018-05-15T16:55:28.945Z,54.95
2018-05-15T16:58:02.210Z,54.02
2018-05-15T17:00:40.085Z,53.55
2018-05-15T17:03:12.635Z,54.84
2018-05-15T17:05:45.993Z,55.20
2018-05-15T17:08:29.646Z,55.98
2018-05-15T17:11:02.667Z,55.65
2018-05-15T17:13:37.748Z,56.32
2018-05-15T17:16:13.104Z,57.53
2018-05-15T17:18:51.611Z,57.76
2018-05-15T17:21:24.896Z,58.26
2018-05-15T17:24:01.016Z,58.88
2018-05-15T17:26:37.156Z,58.95
2018-05-15T17:29:11.654Z,59.21
2018-05-15T17:31:50.386Z,59.59
2018-05-15T17:34:25.048Z,59.06
2018-05-15T17:36:56.762Z,59.34
2018-05-15T17:39:34.770Z,58.91
2018-05-15T17:42:08.717Z,58.35
2018-05-15T17:44:40.834Z,59.73
2018-05-15T17:47:21.567Z,59.78
2018-05-15T17:49:55.718Z,60.13
2018-05-15T17:52:30.186Z,60.38
2018-05-15T17:55:03.340Z,60.95
2018-05-15T17:57:36.843Z,61.07
2018-05-15T18:00:11.963Z,60.83
2018-05-15T18:02:47.979Z,61.79
2018-05-15T18:05:21.821Z,61.79
2018-05-15T18:07:57.499Z,61.09
2018-05-15T18:10:35.258Z,59.35
2018-05-15T18:13:15.076Z,59.59
2018-05-15T18:15:50.583Z,60.04
2018-05-15T18:18:30.126Z,60.99
2018-05-15T18:21:02.563Z,60.99
2018-05-15T18:23:38.284Z,60.71
2018-05-15T18:26:13.556Z,59.56
2018-05-15T18:28:45.512Z,60.55
2018-05-15T18:31:22.870Z,60.86
2018-05-15T18:33:57.967Z,61.21
2018-05-15T18:36:33.791Z,61.74
2018-05-15T18:39:08.679Z,62.16
2018-05-15T18:41:42.811Z,62.34
2018-05-15T18:44:17.964Z,62.58
2018-05-15T18:46:52.280Z,63.20
2018-05-15T18:49:26.491Z,62.95
2018-05-15T18:51:59.845Z,62.92
2018-05-15T18:54:38.606Z,63.51
2018-05-15T18:57:15.046Z,63.32
2018-05-15T18:59:51.905Z,62.88
2018-05-15T19:02:27.633Z,62.81
2018-05-15T19:05:04.455Z,62.89
2018-05-15T19:07:40.513Z,62.42
2018-05-15T19:10:19.096Z,62.55
2018-05-15T19:12:52.389Z,62.87
2018-05-15T19:15:25.130Z,63.11
2018-05-15T19:18:00.094Z,63.14
2018-05-15T19:20:34.111Z,63.41
2018-05-15T19:23:13.133Z,64.02
2018-05-15T19:25:46.178Z,64.44
2018-05-15T19:28:22.576Z,64.66
2018-05-15T19:31:13.192Z,64.78
2018-05-15T19:33:52.511Z,64.84
2018-05-15T19:36:31.467Z,64.25
2018-05-15T19:39:08.425Z,64.66
2018-05-15T19:41:38.901Z,64.29
2018-05-15T19:44:14.844Z,64.10
2018-05-15T19:46:54.309Z,64.19
2018-05-15T19:49:27.901Z,64.10
2018-05-15T19:52:05.176Z,63.98
2018-05-15T19:54:38.615Z,63.70
2018-05-15T19:57:10.359Z,63.75
2018-05-15T19:59:45.104Z,63.82
2018-05-15T20:02:19.345Z,63.92
2018-05-15T20:04:55.054Z,64.32
2018-05-15T20:07:25.857Z,64.67
2018-05-15T20:09:54.628Z,64.35
2018-05-15T20:12:23.416Z,64.11
2018-05-15T20:14:52.186Z,64.10
2018-05-15T20:17:20.952Z,64.25
2018-05-15T20:19:50.487Z,64.46
2018-05-15T20:22:24.972Z,64.07
2018-05-15T20:24:58.974Z,63.84
2018-05-15T20:27:35.565Z,63.67
2018-05-15T20:30:13.869Z,63.89
2018-05-15T20:35:28.250Z,63.61
2018-05-15T20:38:02.768Z,63.95
2018-05-15T20:40:34.117Z,64.22
2018-05-15T20:43:11.275Z,64.42
2018-05-15T20:45:44.392Z,64.63
2018-05-15T20:48:18.311Z,64.89
2018-05-15T20:50:51.690Z,64.90
2018-05-15T20:53:27.608Z,64.93
2018-05-15T20:56:02.319Z,64.57
2018-05-15T20:58:42.460Z,65.44
2018-05-15T21:01:20.259Z,65.76
2018-05-15T21:03:57.936Z,65.48
2018-05-15T21:06:30.712Z,65.14
2018-05-15T21:09:02.126Z,65.38
2018-05-15T21:11:34.956Z,65.01
2018-05-15T21:14:09.527Z,64.94
2018-05-15T21:16:40.725Z,64.83
2018-05-15T21:19:16.416Z,65.53
2018-05-15T21:21:52.640Z,66.15
2018-05-15T21:24:28.661Z,66.28
2018-05-15T21:27:03.629Z,65.89
2018-05-15T21:29:38.457Z,66.15
2018-05-15T21:32:15.604Z,66.21
2018-05-15T21:34:47.917Z,66.19
2018-05-15T21:37:22.541Z,66.05
2018-05-15T21:40:01.399Z,65.50
2018-05-15T21:42:38.542Z,65.16
2018-05-15T21:45:11.664Z,64.90
2018-05-15T21:47:48.645Z,65.07
2018-05-15T21:50:21.851Z,66.26
2018-05-15T21:52:53.866Z,66.56
2018-05-15T21:55:27.971Z,66.37
2018-05-15T21:58:02.728Z,66.90
2018-05-15T22:00:36.377Z,66.94
2018-05-15T22:03:11.045Z,66.81
2018-05-15T22:05:43.474Z,65.45
2018-05-15T22:08:19.121Z,65.72
2018-05-15T22:10:56.130Z,65.58
2018-05-15T22:13:42.956Z,65.91
2018-05-15T22:16:32.018Z,65.78
2018-05-15T22:19:20.293Z,65.66
2018-05-15T22:22:09.059Z,66.16
2018-05-15T22:24:45.999Z,66.46
2018-05-15T22:27:21.173Z,66.34
2018-05-15T22:29:54.968Z,66.19
2018-05-15T22:32:31.043Z,66.59
2018-05-15T22:35:09.019Z,66.28
2018-05-15T22:37:41.304Z,66.08
2018-05-15T22:40:17.427Z,66.71
2018-05-15T22:42:53.847Z,66.37
2018-05-15T22:45:29.468Z,66.02
2018-05-15T22:48:02.012Z,65.51
2018-05-15T22:50:34.899Z,65.34
2018-05-15T22:53:09.465Z,65.96
2018-05-15T22:55:43.239Z,66.04
2018-05-15T22:58:17.910Z,65.72
2018-05-15T23:00:50.691Z,65.38
2018-05-15T23:03:21.119Z,65.27
2018-05-15T23:05:55.081Z,65.06
2018-05-15T23:08:28.916Z,65.20
2018-05-15T23:11:00.806Z,65.19
2018-05-15T23:13:34.851Z,65.18
2018-05-15T23:16:06.241Z,65.38
2018-05-15T23:18:39.193Z,64.91
2018-05-15T23:21:15.363Z,65.16
2018-05-15T23:23:47.336Z,65.12
2018-05-15T23:26:19.852Z,65.41
2018-05-15T23:28:53.922Z,65.61
2018-05-15T23:31:27.839Z,65.94
2018-05-15T23:34:02.519Z,66.31
2018-05-15T23:36:36.402Z,66.46
2018-05-15T23:39:09.641Z,66.10
2018-05-15T23:41:46.794Z,66.11
2018-05-15T23:44:19.738Z,66.59
2018-05-15T23:46:51.438Z,67.09
2018-05-15T23:49:26.524Z,67.38
2018-05-15T23:54:36.999Z,67.62
2018-05-15T23:57:09.978Z,67.67
2018-05-15T23:59:42.751Z,67.68
